Terminal Aerodrome Forecast
Issued by NWS

Home | Current Version | Previous Version | Text Only | Print | Product List | Glossary On
Versions: 1 2 3 4 5 6 7 8 9 10 11 12 13 14 15 16 17 18 19 20 21 22 23 24
926
FTUS43 KDLH 181745
TAFHYR
TAF
KHYR 181745Z 1818/1918 20005KT P6SM SKC WS015/30035KT
     FM181900 23007G15KT P6SM SKC
     FM190000 23004KT P6SM SKC
     FM190400 00000KT 5SM BR BKN120
     FM190800 00000KT 2SM BR SCT008 BKN020 BKN110
     FM191400 14003KT P6SM SCT150=

USA.gov is the U.S. government's official web portal to all federal, state and local government web resources and services.